METAR Data
IDs: Format: Raw Decoded Include TAF

Data at: 0814 UTC 03 Aug 2021

KSAN 030751Z 00000KT 10SM CLR 21/16 A2998 RMK AO2 SLP152 T02110161 402720211
KSAN 030651Z 33004KT 10SM CLR 22/15 A2998 RMK AO2 SLP153 T02170150
KSAN 030551Z 35007KT 10SM CLR 23/13 A2998 RMK AO2 SLP153 T02280133 10256 20217 50005
KSAN 030451Z 32003KT 10SM CLR 22/16 A2999 RMK AO2 SLP154 T02220161
KSAN 030351Z 31005KT 10SM CLR 23/17 A2998 RMK AO2 SLP151 T02280167
KSAN 030251Z 29006KT 10SM CLR 23/18 A2997 RMK AO2 SLP147 T02280183 53003
KSAN 030151Z 29008KT 10SM CLR 24/18 A2996 RMK AO2 SLP144 T02440178
KSAN 030051Z 30009KT 10SM CLR 25/18 A2995 RMK AO2 SLP142 T02500178
KSAN 022351Z 29010KT 10SM CLR 26/17 A2996 RMK AO2 SLP145 T02560172 10272 20244 56010
KSAN 022251Z 29012KT 10SM FEW050 26/17 A2997 RMK AO2 SLP147 T02560172
KSAN 022151Z 29013KT 10SM FEW050 26/16 A2998 RMK AO2 SLP152 T02610161
KSAN 022051Z 29012KT 10SM FEW006 27/16 A2999 RMK AO2 SLP155 T02670161 58015
KSAN 021951Z 30011KT 10SM FEW006 26/16 A3001 RMK AO2 SLP162 T02560161
KSAN 021851Z 30007KT 10SM FEW006 26/16 A3002 RMK AO2 SLP165 T02610156
KSAN 021751Z 30008KT 10SM FEW006 24/16 A3004 RMK AO2 SLP170 T02440161
KSAN 021651Z 32007KT 10SM FEW006 24/16 A3005 RMK AO2 SLP174 T02390161
KSAN 021551Z 27007KT 10SM FEW006 22/17 A3006 RMK AO2 SLP180 T02220167
KSAN 021451Z 31004KT 10SM FEW006 20/17 A3006 RMK AO2 SLP180 T02000167 51012
KSAN 021351Z 31004KT 8SM FEW006 19/16 A3006 RMK AO2 SLP178 T01890161 $
KSAN 021251Z 32004KT 10SM FEW006 18/15 A3005 RMK AO2 SLP174 T01830150 $
KSAN 021151Z 29003KT 10SM FEW007 19/15 A3003 RMK AO2 SLP168 T01890150 10222 20189 $
KSAN 021051Z 03003KT 10SM FEW007 19/14 A3003 RMK AO2 SLP168 T01940144 $
KSAN 020951Z 33004KT 10SM FEW007 19/16 A3002 RMK AO2 SLP167 T01940156 $
KSAN 020908Z 00000KT 10SM FEW007 20/16 A3003 RMK AO2 T02000161 $
KSAN 020851Z 35005KT 10SM P6000FT FEW007 21/16 A3003
KSAN 020751Z 34004KT 10SM FEW008 21/16 A3003 RMK AO2 SLP169 T02060161 402670178 $
KSAN 020651Z 00000KT 10SM FEW008 21/16 A3004 RMK AO2 SLP173 T02110161 $
KSAN 020551Z 35005KT 10SM FEW008 22/16 A3004 RMK AO2 SLP173 T02170161 10267 20217 51012 $
KSAN 020451Z 35006KT 10SM FEW008 22/16 A3004 RMK AO2 SLP171 T02220161 $
KSAN 020351Z 33006KT 10SM FEW008 22/17 A3002 RMK AO2 SLP165 T02220167 $
KSAN 020251Z 32009KT 10SM FEW008 22/17 A3001 RMK AO2 SLP161 T02220172 53003 $
KSAN 020151Z 31008KT 10SM FEW008 24/18 A3000 RMK AO2 SLP158 T02440178 $
KSAN 020144Z 31007KT 10SM FEW008 24/18 A3000 RMK AO2 T02440178 $
KSAN 020051Z 30010KT 10SM CLR 25/18 A2999 RMK AO2 SLP156 T02500178 $
KSAN 012351Z 30009KT 10SM CLR 26/17 A3000 RMK AO2 SLP158 T02610172 10267 20217 $
KSAN 012251Z 31010KT 10SM CLR 26/17 A3002 RMK AO2 SLP164 T02610167 $
KSAN 012151Z 30012KT 10SM FEW008 FEW030 26/16 A3002 RMK AO2 SLPNO T02610161
KSAN 012051Z 30012G18KT 10SM FEW008 26/17 A3003 RMK AO2 SLP168 T02560172 $